Latest Weather Observations for Gympie

IDQ60801

Issued at 8:02 pm EST Wednesday 28 September 2016 (issued every 30 minutes, with the page automatically refreshed every 10 minutes)

About weather observations | Map of weather stations | Latest weather observations for QLD | Other Formats
Station Details ID: 040093 Name: GYMPIE Lat: -26.18 Lon: 152.64 Height: 64.5 m
Data from the previous 72 hours. | See also: Recent months at Gympie
Date/Time
EST
Temp
°C
App
Temp
°C
Dew
Point
°C
Rel
Hum
%
Delta-T
°C
Wind Press
QNH
hPa
Press
MSL
hPa
Rain since
9am
mm
Dir  Spd
km/h
Gust
km/h
Spd
kts
Gust
kts
28/08:00pm 16.6 - - - - CALM 0 0 0 0 1012.8 1012.6 0.0
28/07:30pm 17.1 - - - - CALM 0 0 0 0 1012.6 1012.4 0.0
28/07:00pm 19.2 - - - - CALM 0 0 0 0 1012.5 1012.3 0.0
28/06:30pm 20.4 - - - - E 4 6 2 3 1012.3 1012.1 0.0
28/06:00pm 21.6 - - - - E 6 9 3 5 1011.7 1011.5 0.0
28/05:30pm 23.1 - - - - E 7 15 4 8 1011.4 1011.2 0.0
28/05:00pm 24.4 - - - - E 11 19 6 10 1010.8 1010.6 0.0
28/04:30pm 25.3 - - - - E 11 20 6 11 1010.4 1010.2 0.0
28/04:00pm 25.4 - - - - E 11 20 6 11 1010.2 1010.0 0.0
28/03:30pm 26.3 - - - - ESE 15 26 8 14 1009.5 1009.3 0.0
28/03:00pm 27.6 - - - - ESE 13 24 7 13 1009.7 1009.5 0.0
28/02:30pm 28.9 - - - - NW 4 6 2 3 1009.9 1009.7 0.0
28/02:00pm 28.3 - - - - E 7 13 4 7 1010.4 1010.2 0.0
28/01:30pm 27.6 - - - - SSE 9 15 5 8 1011.0 1010.8 0.0
28/01:00pm 27.8 - - - - SE 6 13 3 7 1011.5 1011.3 0.0
28/12:30pm 27.3 - - - - ESE 6 17 3 9 1011.9 1011.7 0.0
28/12:00pm 26.9 - - - - WSW 7 15 4 8 1012.4 1012.2 0.0
28/11:30am 25.9 - - - - SSE 6 9 3 5 1013.0 1012.8 0.0
28/11:00am 25.4 - - - - SW 4 9 2 5 1013.7 1013.5 0.0
28/10:30am 25.6 22.8 -0.5 18 12.0 SE 4 7 2 4 1014.1 1014.0 0.0
28/10:00am 24.4 20.7 -9.1 10 12.9 NNE 4 7 2 4 1014.6 1014.5 0.0
28/09:30am 24.1 - - - - WNW 4 7 2 4 1014.8 1014.7 0.0
28/09:00am 22.0 - - - - S 2 6 1 3 1014.8 1014.7 0.0
28/08:30am 19.7 - - - - S 2 4 1 2 1014.6 1014.5 0.0
28/08:00am 16.4 - - - - SSE 4 6 2 3 1014.7 1014.6 0.0
28/07:30am 14.1 - - - - CALM 0 0 0 0 1014.8 1014.7 0.0
28/07:00am 11.3 - - - - CALM 0 0 0 0 1014.6 1014.5 0.0
28/06:30am 8.1 7.6 7.7 97 0.2 CALM 0 0 0 0 1014.2 1014.1 0.0
28/06:00am 7.2 - - - - CALM 0 0 0 0 1013.8 1013.7 0.0
28/05:30am 7.0 - - - - CALM 0 0 0 0 1013.5 1013.3 0.0
28/05:00am 7.2 6.4 6.6 96 0.3 CALM 0 0 0 0 1013.1 1012.9 0.0
28/04:30am 7.3 6.2 6.7 96 0.3 SSE 2 4 1 2 1012.6 1012.4 0.0
28/04:00am 7.5 6.7 6.6 94 0.4 CALM 0 0 0 0 1012.4 1012.2 0.0
28/03:30am 8.1 7.3 6.7 91 0.6 CALM 0 0 0 0 1012.3 1012.1 0.0
28/03:00am 8.1 7.3 6.6 90 0.7 CALM 0 6 0 3 1012.3 1012.1 0.0
28/02:30am 8.3 7.6 6.8 90 0.7 CALM 0 0 0 0 1012.5 1012.3 0.0
28/02:00am 8.5 7.8 7.0 90 0.7 CALM 0 0 0 0 1012.8 1012.6 0.0
28/01:30am 8.7 7.9 6.5 86 1.0 CALM 0 0 0 0 1013.0 1012.8 0.0
28/01:00am 9.2 8.0 6.6 84 1.2 NNW 2 4 1 2 1013.2 1013.0 0.0
28/12:30am 10.2 9.4 8.1 87 1.0 W 2 4 1 2 1013.6 1013.4 0.0
28/12:00am 9.8 9.4 8.1 89 0.8 CALM 0 2 0 1 1013.7 1013.5 0.0
 
Date/Time
EST
Temp
°C
App
Temp
°C
Dew
Point
°C
Rel
Hum
%
Delta-T
°C
Wind Press
QNH
hPa
Press
MSL
hPa
Rain since
9am
mm
Dir  Spd
km/h
Gust
km/h
Spd
kts
Gust
kts
27/11:30pm 10.5 9.6 7.7 83 1.4 NNE 2 2 1 1 1013.7 1013.5 0.0
27/11:00pm 11.9 10.4 6.6 70 2.5 N 4 6 2 3 1013.8 1013.7 0.0
27/10:30pm 12.6 10.8 7.1 69 2.7 NNW 6 7 3 4 1014.0 1013.9 0.0
27/10:00pm 13.9 12.6 6.0 59 3.8 NNW 2 6 1 3 1014.1 1014.0 0.0
27/09:30pm 14.1 13.0 6.9 62 3.5 W 2 4 1 2 1014.0 1013.9 0.0
27/09:00pm 15.2 14.2 5.7 53 4.5 CALM 0 2 0 1 1013.9 1013.8 0.0
27/08:30pm 15.8 14.6 4.8 48 5.2 CALM 0 0 0 0 1013.8 1013.7 0.0
27/08:00pm 16.4 15.4 5.7 49 5.2 CALM 0 0 0 0 1013.7 1013.5 0.0
27/07:30pm 18.3 16.7 4.5 40 6.6 NNW 2 4 1 2 1013.4 1013.2 0.0
27/07:00pm 19.5 17.0 4.0 36 7.4 WNW 6 7 3 4 1013.3 1013.1 0.0
27/06:30pm 19.8 17.5 4.7 37 7.3 NW 6 7 3 4 1013.0 1012.8 0.0
27/06:00pm 21.3 18.7 4.4 33 8.2 NW 7 9 4 5 1012.5 1012.3 0.0
27/05:30pm 22.1 19.7 4.2 31 8.7 NW 6 9 3 5 1012.2 1012.0 0.0
27/05:00pm 22.7 19.7 2.2 26 9.7 WNW 7 13 4 7 1012.0 1011.8 0.0
27/04:30pm 23.1 20.1 2.0 25 10.0 W 7 15 4 8 1011.9 1011.7 0.0
27/04:00pm 24.2 21.1 1.2 22 10.8 SW 7 13 4 7 1012.0 1011.8 0.0
27/03:30pm 23.9 19.1 0.3 21 10.9 WSW 15 24 8 13 1011.9 1011.7 0.0
27/03:00pm 23.8 19.5 -1.9 18 11.3 W 11 20 6 11 1011.9 1011.7 0.0
27/02:30pm 23.3 18.5 -2.3 18 11.2 WSW 13 22 7 12 1012.5 1012.3 0.0
27/02:00pm 23.4 19.5 -1.5 19 11.0 WSW 9 17 5 9 1012.4 1012.2 0.0
27/01:30pm 23.8 20.7 0.2 21 10.8 SW 6 11 3 6 1013.1 1012.9 0.0
27/01:00pm 23.8 21.4 4.2 28 9.7 S 6 11 3 6 1013.2 1013.0 0.0
27/12:30pm 23.6 21.5 4.0 28 9.6 S 4 7 2 4 1013.3 1013.1 0.0
27/12:00pm 23.7 21.8 5.1 30 9.3 SSE 4 7 2 4 1014.0 1013.9 0.0
27/11:30am 23.1 20.1 4.1 29 9.3 SW 9 19 5 10 1014.4 1014.3 0.0
27/11:00am 23.1 19.8 2.6 26 9.8 S 9 17 5 9 1014.6 1014.5 0.0
27/10:30am 22.6 18.9 4.2 30 9.0 S 13 22 7 12 1015.0 1014.9 0.0
27/10:00am 23.1 19.0 4.6 30 9.2 SSW 15 28 8 15 1015.4 1015.3 0.0
27/09:30am 21.4 17.2 4.0 32 8.4 SSW 15 30 8 16 1015.0 1014.9 0.0
27/09:00am 21.3 17.0 3.0 30 8.7 SSW 15 26 8 14 1015.0 1014.9 0.0
27/08:30am 19.9 15.0 4.0 35 7.6 SW 19 39 10 21 1015.1 1015.0 0.0
27/08:00am 18.6 - - - - SSW 7 19 4 10 1014.8 1014.7 0.0
27/07:30am 17.9 - - - - SSW 11 24 6 13 1014.9 1014.8 0.0
27/07:00am 16.8 - - - - SSW 6 11 3 6 1014.2 1014.1 0.0
27/06:30am 14.8 - - - - S 4 6 2 3 1014.0 1013.9 0.0
27/06:00am 13.4 - - - - SSE 4 6 2 3 1013.8 1013.7 0.0
27/05:30am 13.9 - - - - NNW 2 4 1 2 1013.3 1013.1 0.0
27/05:00am 12.7 - - - - CALM 0 4 0 2 1012.9 1012.7 0.0
27/04:30am 13.4 - - - - CALM 0 2 0 1 1012.8 1012.6 0.0
27/04:00am 12.7 - - - - CALM 0 0 0 0 1012.8 1012.6 0.0
27/03:30am 12.7 - - - - SW 2 6 1 3 1012.6 1012.4 0.0
27/03:00am 12.9 - - - - NNW 2 4 1 2 1012.5 1012.3 0.0
27/02:30am 12.5 - - - - CALM 0 0 0 0 1012.6 1012.4 0.0
27/02:00am 12.7 - - - - CALM 0 0 0 0 1012.9 1012.7 0.0
27/01:30am 12.8 - - - - CALM 0 0 0 0 1013.1 1012.9 0.0
27/01:00am 12.6 - - - - CALM 0 0 0 0 1013.2 1013.0 0.0
27/12:30am 12.4 - - - - CALM 0 0 0 0 1013.0 1012.8 0.0
27/12:00am 12.5 - - - - CALM 0 4 0 2 1013.1 1012.9 0.0
 
Date/Time
EST
Temp
°C
App
Temp
°C
Dew
Point
°C
Rel
Hum
%
Delta-T
°C
Wind Press
QNH
hPa
Press
MSL
hPa
Rain since
9am
mm
Dir  Spd
km/h
Gust
km/h
Spd
kts
Gust
kts
26/11:30pm 12.4 12.8 11.3 93 0.6 CALM 0 0 0 0 1013.4 1013.2 0.0
26/11:00pm 12.9 13.3 11.1 89 0.9 CALM 0 2 0 1 1013.6 1013.4 0.0
26/10:30pm 13.3 12.8 10.8 85 1.3 N 4 7 2 4 1013.7 1013.5 0.0
26/10:00pm 13.7 - - - - N 4 6 2 3 1014.0 1013.9 0.0
26/09:30pm 14.9 - - - - CALM 0 0 0 0 1013.9 1013.8 0.0
26/09:00pm 14.9 - - - - CALM 0 4 0 2 1013.4 1013.2 0.0
26/08:30pm 16.6 16.9 10.9 69 3.1 CALM 0 0 0 0 1013.1 1012.9 0.0
26/08:00pm 16.9 17.3 11.2 69 3.1 CALM 0 0 0 0 1012.8 1012.6 0.0
26/07:30pm 18.5 18.7 10.6 60 4.3 CALM 0 0 0 0 1012.0 1011.8 0.0
26/07:00pm 19.5 19.8 10.8 57 4.7 CALM 0 2 0 1 1012.0 1011.8 0.0
26/06:30pm 21.0 20.3 9.9 49 6.0 NE 4 6 2 3 1011.6 1011.4 0.0
26/06:00pm 22.0 21.1 9.2 44 6.9 ENE 4 9 2 5 1011.0 1010.8 0.0
26/05:30pm 23.6 22.0 8.8 39 8.0 NE 7 17 4 9 1010.6 1010.4 0.0
26/05:00pm 25.3 23.4 9.2 36 8.8 NE 9 19 5 10 1010.1 1009.9 0.0
26/04:30pm 27.1 25.4 6.0 26 11.0 NNW 4 9 2 5 1009.6 1009.4 0.0
26/04:00pm 27.4 24.8 6.2 26 11.1 NW 9 15 5 8 1009.3 1009.1 0.0
26/03:30pm 27.5 25.4 5.7 25 11.3 WSW 6 13 3 7 1009.2 1009.0 0.0
26/03:00pm 27.4 25.1 5.6 25 11.3 WNW 7 13 4 7 1009.6 1009.4 0.0
26/02:30pm 27.4 25.2 5.1 24 11.5 SSE 6 11 3 6 1009.5 1009.3 0.0
26/02:00pm 27.3 25.1 6.1 26 11.1 ESE 7 11 4 6 1009.7 1009.5 0.0
26/01:30pm 26.9 24.8 5.8 26 11.0 SSE 6 11 3 6 1010.3 1010.1 0.0
26/01:00pm 26.6 24.9 7.6 30 10.2 WNW 6 11 3 6 1011.0 1010.8 0.0
26/12:30pm 25.4 23.1 5.6 28 10.1 N 7 15 4 8 1011.6 1011.4 0.0
26/12:00pm 24.9 22.7 5.2 28 10.0 W 6 15 3 8 1012.2 1012.0 0.0
26/11:30am 24.6 22.4 6.4 31 9.4 SW 7 15 4 8 1012.6 1012.4 0.0
26/11:00am 24.3 22.5 7.0 33 9.0 SW 6 11 3 6 1013.0 1012.8 0.0
26/10:30am 23.6 21.4 6.4 33 8.8 WSW 7 13 4 7 1013.4 1013.2 0.0
26/10:00am 23.7 22.1 8.6 38 8.1 S 7 15 4 8 1013.8 1013.7 0.0
26/09:30am 22.6 19.7 8.0 39 7.7 SSW 13 22 7 12 1013.9 1013.8 0.0
26/09:00am 21.6 18.5 8.8 44 6.8 S 15 28 8 15 1014.0 1013.9 0.0
26/08:30am 20.9 17.8 8.9 46 6.4 SSW 15 28 8 15 1014.1 1014.0 0.0
26/08:00am 19.9 18.5 9.5 51 5.5 SSW 7 13 4 7 1014.2 1014.1 0.0
26/07:30am 18.7 17.3 9.5 55 4.9 SW 7 13 4 7 1014.2 1014.1 0.0
26/07:00am 17.2 16.9 8.6 57 4.4 CALM 0 0 0 0 1014.0 1013.9 0.0
26/06:30am 14.3 13.5 9.5 73 2.5 WSW 4 11 2 6 1013.3 1013.1 0.0
26/06:00am 11.3 9.4 8.9 85 1.2 WSW 9 11 5 6 1012.9 1012.7 0.0
26/05:30am 12.4 12.1 8.7 78 1.8 CALM 0 0 0 0 1012.4 1012.2 0.0
26/05:00am 13.7 12.8 9.4 75 2.2 SW 4 6 2 3 1012.0 1011.8 0.0
26/04:30am 13.8 12.2 8.8 72 2.5 SSW 7 9 4 5 1011.7 1011.5 0.0
26/04:00am 14.4 13.7 8.4 67 3.0 SW 2 6 1 3 1011.5 1011.3 0.0
26/03:30am 16.0 - - - - SSW 4 7 2 4 1011.3 1011.1 0.0
26/03:00am 16.3 - - - - S 6 7 3 4 1011.0 1010.8 0.0
26/02:30am 16.4 - - - - S 9 17 5 9 1010.9 1010.7 0.0
26/02:00am 17.0 14.9 8.2 56 4.5 S 9 13 5 7 1011.0 1010.8 0.0
26/01:30am 17.5 15.9 8.1 54 4.8 SSW 6 13 3 7 1011.2 1011.0 0.0
26/01:00am 18.1 16.5 7.8 51 5.3 SW 6 9 3 5 1011.3 1011.1 0.0
26/12:30am 18.1 16.4 7.5 50 5.4 SSW 6 11 3 6 1011.4 1011.2 0.0
26/12:00am 18.5 17.0 7.0 47 5.8 S 4 6 2 3 1011.5 1011.3 0.0
 
Date/Time
EST
Temp
°C
App
Temp
°C
Dew
Point
°C
Rel
Hum
%
Delta-T
°C
Wind Press
QNH
hPa
Press
MSL
hPa
Rain since
9am
mm
Dir  Spd
km/h
Gust
km/h
Spd
kts
Gust
kts
25/11:30pm 19.3 17.6 7.7 47 6.0 SSW 6 11 3 6 1011.4 1011.2 0.0
25/11:00pm 19.6 18.4 8.0 47 6.0 SSW 4 7 2 4 1011.4 1011.2 0.0
25/10:30pm 20.5 18.9 7.8 44 6.6 S 6 11 3 6 1011.1 1010.9 0.0
25/10:00pm 21.4 19.2 8.0 42 7.0 SSW 9 22 5 12 1011.0 1010.8 0.0
25/09:30pm 21.7 20.0 8.2 42 7.1 SW 7 13 4 7 1010.9 1010.7 0.0
25/09:00pm 21.7 20.2 9.3 45 6.7 SW 7 15 4 8 1010.7 1010.5 0.0
25/08:30pm 22.8 21.4 9.6 43 7.2 SW 7 17 4 9 1010.7 1010.5 0.0

Other Formats:

Comma delimited format used in spreadsheet applications
http://www.bom.gov.au/fwo/IDQ60801/IDQ60801.94566.axf

JavaScript Object Notation format (JSON) in row-major order
http://www.bom.gov.au/fwo/IDQ60801/IDQ60801.94566.json